sensor_id;sensor_type;location;lat;lon;timestamp;temperature;humidity
9943;DHT22;5010;45.080;7.634;2023-04-03T00:00:40;21.10;1.00
9943;DHT22;5010;45.080;7.634;2023-04-03T00:03:07;21.10;1.00
9943;DHT22;5010;45.080;7.634;2023-04-03T00:05:35;21.10;1.00
9943;DHT22;5010;45.080;7.634;2023-04-03T00:08:02;21.10;1.00
9943;DHT22;5010;45.080;7.634;2023-04-03T00:10:33;21.10;1.00
9943;DHT22;5010;45.080;7.634;2023-04-03T00:13:00;21.10;1.00
9943;DHT22;5010;45.080;7.634;2023-04-03T00:15:27;21.10;1.00
9943;DHT22;5010;45.080;7.634;2023-04-03T00:17:53;21.00;1.00
9943;DHT22;5010;45.080;7.634;2023-04-03T00:20:20;21.10;1.00
9943;DHT22;5010;45.080;7.634;2023-04-03T00:22:49;21.10;1.00
9943;DHT22;5010;45.080;7.634;2023-04-03T00:25:16;21.10;1.00
9943;DHT22;5010;45.080;7.634;2023-04-03T00:27:43;21.10;1.00
9943;DHT22;5010;45.080;7.634;2023-04-03T00:30:14;21.10;1.00
9943;DHT22;5010;45.080;7.634;2023-04-03T00:32:41;21.10;1.00
9943;DHT22;5010;45.080;7.634;2023-04-03T00:35:09;21.10;1.00
9943;DHT22;5010;45.080;7.634;2023-04-03T00:37:36;21.10;1.00
9943;DHT22;5010;45.080;7.634;2023-04-03T00:40:06;21.10;1.00
9943;DHT22;5010;45.080;7.634;2023-04-03T00:42:34;21.10;1.00
9943;DHT22;5010;45.080;7.634;2023-04-03T00:45:27;21.00;1.00
9943;DHT22;5010;45.080;7.634;2023-04-03T00:47:56;21.00;1.00
9943;DHT22;5010;45.080;7.634;2023-04-03T00:50:25;21.00;1.00
9943;DHT22;5010;45.080;7.634;2023-04-03T00:52:52;21.00;1.00
9943;DHT22;5010;45.080;7.634;2023-04-03T00:55:21;21.00;1.00
9943;DHT22;5010;45.080;7.634;2023-04-03T00:57:49;21.00;1.00
9943;DHT22;5010;45.080;7.634;2023-04-03T01:00:19;21.00;1.00
9943;DHT22;5010;45.080;7.634;2023-04-03T01:02:48;21.00;1.00
9943;DHT22;5010;45.080;7.634;2023-04-03T01:05:17;21.00;1.00
9943;DHT22;5010;45.080;7.634;2023-04-03T01:07:45;21.00;1.00
9943;DHT22;5010;45.080;7.634;2023-04-03T01:10:14;21.00;1.00
9943;DHT22;5010;45.080;7.634;2023-04-03T01:12:44;21.00;1.00
9943;DHT22;5010;45.080;7.634;2023-04-03T01:15:13;21.00;1.00
9943;DHT22;5010;45.080;7.634;2023-04-03T01:17:43;21.00;1.00
9943;DHT22;5010;45.080;7.634;2023-04-03T01:23:41;21.00;1.00
9943;DHT22;5010;45.080;7.634;2023-04-03T01:26:10;21.00;1.00
9943;DHT22;5010;45.080;7.634;2023-04-03T01:28:38;21.00;1.00
9943;DHT22;5010;45.080;7.634;2023-04-03T01:31:13;21.00;1.00
9943;DHT22;5010;45.080;7.634;2023-04-03T01:33:43;21.00;1.00
9943;DHT22;5010;45.080;7.634;2023-04-03T01:36:14;21.00;1.00
9943;DHT22;5010;45.080;7.634;2023-04-03T01:38:41;21.00;1.00
9943;DHT22;5010;45.080;7.634;2023-04-03T01:41:08;21.00;1.00
9943;DHT22;5010;45.080;7.634;2023-04-03T01:43:35;21.00;1.00
9943;DHT22;5010;45.080;7.634;2023-04-03T01:46:02;21.00;1.00
9943;DHT22;5010;45.080;7.634;2023-04-03T01:48:28;20.90;1.00
9943;DHT22;5010;45.080;7.634;2023-04-03T01:50:57;21.00;1.00
9943;DHT22;5010;45.080;7.634;2023-04-03T01:53:23;21.00;1.00
9943;DHT22;5010;45.080;7.634;2023-04-03T01:55:50;21.00;1.00
9943;DHT22;5010;45.080;7.634;2023-04-03T01:58:17;20.90;1.00
9943;DHT22;5010;45.080;7.634;2023-04-03T02:00:44;21.00;1.00
9943;DHT22;5010;45.080;7.634;2023-04-03T02:03:11;21.00;1.00
9943;DHT22;5010;45.080;7.634;2023-04-03T02:05:38;20.90;1.00
9943;DHT22;5010;45.080;7.634;2023-04-03T02:08:06;20.90;1.00
9943;DHT22;5010;45.080;7.634;2023-04-03T02:10:33;20.90;1.00
9943;DHT22;5010;45.080;7.634;2023-04-03T02:13:00;20.90;1.00
9943;DHT22;5010;45.080;7.634;2023-04-03T02:15:27;20.90;1.00
9943;DHT22;5010;45.080;7.634;2023-04-03T02:17:54;20.90;1.00
9943;DHT22;5010;45.080;7.634;2023-04-03T02:20:21;20.90;1.00
9943;DHT22;5010;45.080;7.634;2023-04-03T02:22:47;20.90;1.00
9943;DHT22;5010;45.080;7.634;2023-04-03T02:25:16;20.90;1.00
9943;DHT22;5010;45.080;7.634;2023-04-03T02:27:44;20.90;1.00
9943;DHT22;5010;45.080;7.634;2023-04-03T02:30:11;20.90;1.00
9943;DHT22;5010;45.080;7.634;2023-04-03T02:32:40;20.90;1.00
9943;DHT22;5010;45.080;7.634;2023-04-03T02:35:08;20.90;1.00
9943;DHT22;5010;45.080;7.634;2023-04-03T02:37:35;20.90;1.00
9943;DHT22;5010;45.080;7.634;2023-04-03T02:40:02;20.90;1.00
9943;DHT22;5010;45.080;7.634;2023-04-03T02:42:30;20.90;1.00
9943;DHT22;5010;45.080;7.634;2023-04-03T02:44:57;20.90;1.00
9943;DHT22;5010;45.080;7.634;2023-04-03T02:47:25;20.90;1.00
9943;DHT22;5010;45.080;7.634;2023-04-03T02:49:52;20.90;1.00
9943;DHT22;5010;45.080;7.634;2023-04-03T02:52:19;20.90;1.00
9943;DHT22;5010;45.080;7.634;2023-04-03T02:54:46;20.90;1.00
9943;DHT22;5010;45.080;7.634;2023-04-03T02:57:13;20.90;1.00
9943;DHT22;5010;45.080;7.634;2023-04-03T02:59:41;20.90;1.00
9943;DHT22;5010;45.080;7.634;2023-04-03T03:02:08;20.90;1.00
9943;DHT22;5010;45.080;7.634;2023-04-03T03:04:36;20.90;1.00
9943;DHT22;5010;45.080;7.634;2023-04-03T03:07:03;20.90;1.00
9943;DHT22;5010;45.080;7.634;2023-04-03T03:09:30;20.90;1.00
9943;DHT22;5010;45.080;7.634;2023-04-03T03:11:57;20.90;1.00
9943;DHT22;5010;45.080;7.634;2023-04-03T03:14:24;20.90;1.00
9943;DHT22;5010;45.080;7.634;2023-04-03T03:16:52;20.90;1.00
9943;DHT22;5010;45.080;7.634;2023-04-03T03:19:19;20.90;1.00
9943;DHT22;5010;45.080;7.634;2023-04-03T03:21:46;20.90;1.00
9943;DHT22;5010;45.080;7.634;2023-04-03T03:24:12;20.90;1.00
9943;DHT22;5010;45.080;7.634;2023-04-03T03:26:41;20.80;1.00
9943;DHT22;5010;45.080;7.634;2023-04-03T03:29:08;20.90;1.00
9943;DHT22;5010;45.080;7.634;2023-04-03T03:31:35;20.90;1.00
9943;DHT22;5010;45.080;7.634;2023-04-03T03:34:03;20.90;1.00
9943;DHT22;5010;45.080;7.634;2023-04-03T03:36:30;20.90;1.00
9943;DHT22;5010;45.080;7.634;2023-04-03T03:38:57;20.90;1.00
9943;DHT22;5010;45.080;7.634;2023-04-03T03:41:24;20.90;1.00
9943;DHT22;5010;45.080;7.634;2023-04-03T03:43:50;20.80;1.00
9943;DHT22;5010;45.080;7.634;2023-04-03T03:46:17;20.80;1.00
9943;DHT22;5010;45.080;7.634;2023-04-03T03:48:44;20.80;1.00
9943;DHT22;5010;45.080;7.634;2023-04-03T03:51:12;20.80;1.00
9943;DHT22;5010;45.080;7.634;2023-04-03T03:53:39;20.80;1.00
9943;DHT22;5010;45.080;7.634;2023-04-03T03:56:06;20.80;1.00
9943;DHT22;5010;45.080;7.634;2023-04-03T03:58:33;20.80;1.00
9943;DHT22;5010;45.080;7.634;2023-04-03T04:01:01;20.80;1.00
9943;DHT22;5010;45.080;7.634;2023-04-03T04:03:28;20.80;1.00
9943;DHT22;5010;45.080;7.634;2023-04-03T04:05:55;20.80;1.00
9943;DHT22;5010;45.080;7.634;2023-04-03T04:08:23;20.80;1.00
9943;DHT22;5010;45.080;7.634;2023-04-03T04:10:50;20.80;1.00
9943;DHT22;5010;45.080;7.634;2023-04-03T04:13:17;20.80;1.00
9943;DHT22;5010;45.080;7.634;2023-04-03T04:15:44;20.80;1.00
9943;DHT22;5010;45.080;7.634;2023-04-03T04:18:11;20.80;1.00
9943;DHT22;5010;45.080;7.634;2023-04-03T04:20:38;20.80;1.00
9943;DHT22;5010;45.080;7.634;2023-04-03T04:23:05;20.80;1.00
9943;DHT22;5010;45.080;7.634;2023-04-03T04:25:33;20.80;1.00
9943;DHT22;5010;45.080;7.634;2023-04-03T04:28:00;20.80;1.00
9943;DHT22;5010;45.080;7.634;2023-04-03T04:30:27;20.80;1.00
9943;DHT22;5010;45.080;7.634;2023-04-03T04:32:53;20.80;1.00
9943;DHT22;5010;45.080;7.634;2023-04-03T04:35:20;20.80;1.00
9943;DHT22;5010;45.080;7.634;2023-04-03T04:37:47;20.80;1.00
9943;DHT22;5010;45.080;7.634;2023-04-03T04:40:14;20.80;1.00
9943;DHT22;5010;45.080;7.634;2023-04-03T04:42:42;20.80;1.00
9943;DHT22;5010;45.080;7.634;2023-04-03T04:45:10;20.80;1.00
9943;DHT22;5010;45.080;7.634;2023-04-03T04:47:36;20.70;1.00
9943;DHT22;5010;45.080;7.634;2023-04-03T04:50:04;20.80;1.00
9943;DHT22;5010;45.080;7.634;2023-04-03T04:52:31;20.80;1.00
9943;DHT22;5010;45.080;7.634;2023-04-03T04:54:58;20.80;1.00
9943;DHT22;5010;45.080;7.634;2023-04-03T04:57:25;20.80;1.00
9943;DHT22;5010;45.080;7.634;2023-04-03T04:59:53;20.80;1.00
9943;DHT22;5010;45.080;7.634;2023-04-03T05:02:20;20.80;1.00
9943;DHT22;5010;45.080;7.634;2023-04-03T05:04:47;20.80;1.00
9943;DHT22;5010;45.080;7.634;2023-04-03T05:07:15;20.80;1.00
9943;DHT22;5010;45.080;7.634;2023-04-03T05:09:42;20.80;1.00
9943;DHT22;5010;45.080;7.634;2023-04-03T05:12:09;20.80;1.00
9943;DHT22;5010;45.080;7.634;2023-04-03T05:14:36;20.80;1.00
9943;DHT22;5010;45.080;7.634;2023-04-03T05:17:04;20.80;1.00
9943;DHT22;5010;45.080;7.634;2023-04-03T05:19:31;20.80;1.00
9943;DHT22;5010;45.080;7.634;2023-04-03T05:21:58;20.80;1.00
9943;DHT22;5010;45.080;7.634;2023-04-03T05:24:25;20.70;1.00
9943;DHT22;5010;45.080;7.634;2023-04-03T05:26:51;20.80;1.00
9943;DHT22;5010;45.080;7.634;2023-04-03T05:29:18;20.70;1.00
9943;DHT22;5010;45.080;7.634;2023-04-03T05:31:45;20.70;1.00
9943;DHT22;5010;45.080;7.634;2023-04-03T05:34:13;20.70;1.00
9943;DHT22;5010;45.080;7.634;2023-04-03T05:36:40;20.70;1.00
9943;DHT22;5010;45.080;7.634;2023-04-03T05:39:08;20.70;1.00
9943;DHT22;5010;45.080;7.634;2023-04-03T05:41:34;20.70;1.00
9943;DHT22;5010;45.080;7.634;2023-04-03T05:44:01;20.70;1.00
9943;DHT22;5010;45.080;7.634;2023-04-03T05:46:28;20.70;1.00
9943;DHT22;5010;45.080;7.634;2023-04-03T05:48:55;20.70;1.00
9943;DHT22;5010;45.080;7.634;2023-04-03T05:51:25;20.70;1.00
9943;DHT22;5010;45.080;7.634;2023-04-03T05:53:59;20.70;1.00
9943;DHT22;5010;45.080;7.634;2023-04-03T05:56:27;20.70;1.00
9943;DHT22;5010;45.080;7.634;2023-04-03T05:58:54;20.70;1.00
9943;DHT22;5010;45.080;7.634;2023-04-03T06:01:21;20.70;1.00
9943;DHT22;5010;45.080;7.634;2023-04-03T06:03:49;20.70;1.00
9943;DHT22;5010;45.080;7.634;2023-04-03T06:06:15;20.70;1.00
9943;DHT22;5010;45.080;7.634;2023-04-03T06:08:44;20.70;1.00
9943;DHT22;5010;45.080;7.634;2023-04-03T06:11:11;20.70;1.00
9943;DHT22;5010;45.080;7.634;2023-04-03T06:13:38;20.70;1.00
9943;DHT22;5010;45.080;7.634;2023-04-03T06:16:05;20.70;1.00
9943;DHT22;5010;45.080;7.634;2023-04-03T06:18:32;20.70;1.00
9943;DHT22;5010;45.080;7.634;2023-04-03T06:20:59;20.70;1.00
9943;DHT22;5010;45.080;7.634;2023-04-03T06:23:26;20.70;1.00
9943;DHT22;5010;45.080;7.634;2023-04-03T06:25:54;20.70;1.00
9943;DHT22;5010;45.080;7.634;2023-04-03T06:28:22;20.70;1.00
9943;DHT22;5010;45.080;7.634;2023-04-03T06:30:49;20.70;1.00
9943;DHT22;5010;45.080;7.634;2023-04-03T06:33:16;20.70;1.00
9943;DHT22;5010;45.080;7.634;2023-04-03T06:35:42;20.70;1.00
9943;DHT22;5010;45.080;7.634;2023-04-03T06:38:09;20.70;1.00
9943;DHT22;5010;45.080;7.634;2023-04-03T06:40:36;20.70;1.00
9943;DHT22;5010;45.080;7.634;2023-04-03T06:43:05;20.70;1.00
9943;DHT22;5010;45.080;7.634;2023-04-03T06:45:32;20.70;1.00
9943;DHT22;5010;45.080;7.634;2023-04-03T06:47:59;20.70;1.00
9943;DHT22;5010;45.080;7.634;2023-04-03T06:50:26;20.70;1.00
9943;DHT22;5010;45.080;7.634;2023-04-03T06:52:53;20.70;1.00
9943;DHT22;5010;45.080;7.634;2023-04-03T06:55:20;20.70;1.00
9943;DHT22;5010;45.080;7.634;2023-04-03T06:57:47;20.70;1.00
9943;DHT22;5010;45.080;7.634;2023-04-03T07:00:18;20.70;1.00
9943;DHT22;5010;45.080;7.634;2023-04-03T07:02:45;20.70;1.00
9943;DHT22;5010;45.080;7.634;2023-04-03T07:05:12;20.70;1.00
9943;DHT22;5010;45.080;7.634;2023-04-03T07:07:39;20.70;1.00
9943;DHT22;5010;45.080;7.634;2023-04-03T07:10:07;20.70;1.00
9943;DHT22;5010;45.080;7.634;2023-04-03T07:12:35;20.70;1.00
9943;DHT22;5010;45.080;7.634;2023-04-03T07:15:02;20.70;1.00
9943;DHT22;5010;45.080;7.634;2023-04-03T07:17:30;20.70;1.00
9943;DHT22;5010;45.080;7.634;2023-04-03T07:19:57;20.70;1.00
9943;DHT22;5010;45.080;7.634;2023-04-03T07:22:24;20.70;1.00
9943;DHT22;5010;45.080;7.634;2023-04-03T07:24:51;20.70;1.00
9943;DHT22;5010;45.080;7.634;2023-04-03T07:27:18;20.70;1.00
9943;DHT22;5010;45.080;7.634;2023-04-03T07:29:45;20.70;1.00
9943;DHT22;5010;45.080;7.634;2023-04-03T07:32:13;20.70;1.00
9943;DHT22;5010;45.080;7.634;2023-04-03T07:34:41;20.70;1.00
9943;DHT22;5010;45.080;7.634;2023-04-03T07:37:08;20.70;1.00
9943;DHT22;5010;45.080;7.634;2023-04-03T07:39:35;20.70;1.00
9943;DHT22;5010;45.080;7.634;2023-04-03T07:42:02;20.70;1.00
9943;DHT22;5010;45.080;7.634;2023-04-03T07:44:29;20.70;1.00
9943;DHT22;5010;45.080;7.634;2023-04-03T07:46:56;20.70;1.00
9943;DHT22;5010;45.080;7.634;2023-04-03T07:49:23;20.70;1.00
9943;DHT22;5010;45.080;7.634;2023-04-03T07:51:51;20.70;1.00
9943;DHT22;5010;45.080;7.634;2023-04-03T07:54:18;20.70;1.00
9943;DHT22;5010;45.080;7.634;2023-04-03T07:56:45;20.70;1.00
9943;DHT22;5010;45.080;7.634;2023-04-03T07:59:12;20.70;1.00
9943;DHT22;5010;45.080;7.634;2023-04-03T08:01:39;20.70;1.00
9943;DHT22;5010;45.080;7.634;2023-04-03T08:04:06;20.70;1.00
9943;DHT22;5010;45.080;7.634;2023-04-03T08:06:33;20.70;1.00
9943;DHT22;5010;45.080;7.634;2023-04-03T08:09:04;20.70;1.00
9943;DHT22;5010;45.080;7.634;2023-04-03T08:11:31;20.70;1.00
9943;DHT22;5010;45.080;7.634;2023-04-03T08:13:58;20.70;1.00
9943;DHT22;5010;45.080;7.634;2023-04-03T08:16:25;20.70;1.00
9943;DHT22;5010;45.080;7.634;2023-04-03T08:18:53;20.80;1.00
9943;DHT22;5010;45.080;7.634;2023-04-03T08:21:20;20.70;1.00
9943;DHT22;5010;45.080;7.634;2023-04-03T08:23:49;20.70;1.00
9943;DHT22;5010;45.080;7.634;2023-04-03T08:26:20;20.80;1.00
9943;DHT22;5010;45.080;7.634;2023-04-03T08:28:47;20.80;1.00
9943;DHT22;5010;45.080;7.634;2023-04-03T08:31:16;20.80;1.00
9943;DHT22;5010;45.080;7.634;2023-04-03T08:33:44;20.80;1.00
9943;DHT22;5010;45.080;7.634;2023-04-03T08:36:18;20.80;1.00
9943;DHT22;5010;45.080;7.634;2023-04-03T08:38:46;20.80;1.00
9943;DHT22;5010;45.080;7.634;2023-04-03T08:41:15;20.80;1.00
9943;DHT22;5010;45.080;7.634;2023-04-03T08:43:55;20.80;1.00
9943;DHT22;5010;45.080;7.634;2023-04-03T08:46:30;20.80;1.00
9943;DHT22;5010;45.080;7.634;2023-04-03T08:49:00;20.80;1.00
9943;DHT22;5010;45.080;7.634;2023-04-03T08:51:27;20.80;1.00
9943;DHT22;5010;45.080;7.634;2023-04-03T08:53:58;20.80;1.00
9943;DHT22;5010;45.080;7.634;2023-04-03T08:56:27;20.80;1.00
9943;DHT22;5010;45.080;7.634;2023-04-03T08:58:59;20.80;1.00
9943;DHT22;5010;45.080;7.634;2023-04-03T09:01:30;20.80;1.00
9943;DHT22;5010;45.080;7.634;2023-04-03T09:04:00;20.80;1.00
9943;DHT22;5010;45.080;7.634;2023-04-03T09:06:31;20.80;1.00
9943;DHT22;5010;45.080;7.634;2023-04-03T09:09:07;20.80;1.00
9943;DHT22;5010;45.080;7.634;2023-04-03T09:11:46;20.80;1.00
9943;DHT22;5010;45.080;7.634;2023-04-03T09:14:19;20.80;1.00
9943;DHT22;5010;45.080;7.634;2023-04-03T09:16:52;20.80;1.00
9943;DHT22;5010;45.080;7.634;2023-04-03T09:19:25;20.80;1.00
9943;DHT22;5010;45.080;7.634;2023-04-03T09:21:56;20.80;1.00
9943;DHT22;5010;45.080;7.634;2023-04-03T09:24:24;20.80;1.00
9943;DHT22;5010;45.080;7.634;2023-04-03T09:26:54;20.80;1.00
9943;DHT22;5010;45.080;7.634;2023-04-03T09:29:26;20.80;1.00
9943;DHT22;5010;45.080;7.634;2023-04-03T09:31:56;20.80;1.00
9943;DHT22;5010;45.080;7.634;2023-04-03T09:34:26;20.80;1.00
9943;DHT22;5010;45.080;7.634;2023-04-03T09:36:54;20.80;1.00
9943;DHT22;5010;45.080;7.634;2023-04-03T09:39:23;20.80;1.00
9943;DHT22;5010;45.080;7.634;2023-04-03T09:42:00;20.80;1.00
9943;DHT22;5010;45.080;7.634;2023-04-03T09:44:30;20.80;1.00
9943;DHT22;5010;45.080;7.634;2023-04-03T09:46:58;20.80;1.00
9943;DHT22;5010;45.080;7.634;2023-04-03T09:49:26;20.90;1.00
9943;DHT22;5010;45.080;7.634;2023-04-03T09:51:55;20.90;1.00
9943;DHT22;5010;45.080;7.634;2023-04-03T09:54:34;20.90;1.00
9943;DHT22;5010;45.080;7.634;2023-04-03T09:57:07;20.90;1.00
9943;DHT22;5010;45.080;7.634;2023-04-03T09:59:40;20.90;1.00
9943;DHT22;5010;45.080;7.634;2023-04-03T10:02:22;20.90;1.00
9943;DHT22;5010;45.080;7.634;2023-04-03T10:04:51;20.90;1.00
9943;DHT22;5010;45.080;7.634;2023-04-03T10:07:33;20.90;1.00
9943;DHT22;5010;45.080;7.634;2023-04-03T10:10:14;20.90;1.00
9943;DHT22;5010;45.080;7.634;2023-04-03T10:12:42;20.90;1.00
9943;DHT22;5010;45.080;7.634;2023-04-03T10:15:13;20.90;1.00
9943;DHT22;5010;45.080;7.634;2023-04-03T10:17:49;20.90;1.00
9943;DHT22;5010;45.080;7.634;2023-04-03T10:20:27;21.00;1.00
9943;DHT22;5010;45.080;7.634;2023-04-03T10:23:05;21.00;1.00
9943;DHT22;5010;45.080;7.634;2023-04-03T10:25:40;21.00;1.00
9943;DHT22;5010;45.080;7.634;2023-04-03T10:28:17;21.00;1.00
9943;DHT22;5010;45.080;7.634;2023-04-03T10:30:51;21.00;1.00
9943;DHT22;5010;45.080;7.634;2023-04-03T10:33:44;21.10;1.00
9943;DHT22;5010;45.080;7.634;2023-04-03T10:36:21;21.10;1.00
9943;DHT22;5010;45.080;7.634;2023-04-03T10:38:59;21.10;1.00
9943;DHT22;5010;45.080;7.634;2023-04-03T10:41:38;21.10;1.00
9943;DHT22;5010;45.080;7.634;2023-04-03T10:44:15;21.10;1.00
9943;DHT22;5010;45.080;7.634;2023-04-03T10:46:51;21.10;1.00
9943;DHT22;5010;45.080;7.634;2023-04-03T10:49:32;21.10;1.00
9943;DHT22;5010;45.080;7.634;2023-04-03T10:52:07;21.10;1.00
9943;DHT22;5010;45.080;7.634;2023-04-03T10:54:40;21.10;1.00
9943;DHT22;5010;45.080;7.634;2023-04-03T10:57:09;21.10;1.00
9943;DHT22;5010;45.080;7.634;2023-04-03T10:59:40;21.20;1.00
9943;DHT22;5010;45.080;7.634;2023-04-03T11:02:16;21.20;1.00
9943;DHT22;5010;45.080;7.634;2023-04-03T11:04:49;21.20;1.00
9943;DHT22;5010;45.080;7.634;2023-04-03T11:07:20;21.20;1.00
9943;DHT22;5010;45.080;7.634;2023-04-03T11:09:50;21.20;1.00
9943;DHT22;5010;45.080;7.634;2023-04-03T11:12:23;21.20;1.00
9943;DHT22;5010;45.080;7.634;2023-04-03T11:14:53;21.20;1.00
9943;DHT22;5010;45.080;7.634;2023-04-03T11:17:28;21.20;1.00
9943;DHT22;5010;45.080;7.634;2023-04-03T11:20:01;21.20;1.00
9943;DHT22;5010;45.080;7.634;2023-04-03T11:22:33;21.20;1.00
9943;DHT22;5010;45.080;7.634;2023-04-03T11:25:13;21.30;1.00
9943;DHT22;5010;45.080;7.634;2023-04-03T11:27:48;21.30;1.00
9943;DHT22;5010;45.080;7.634;2023-04-03T11:30:19;21.30;1.00
9943;DHT22;5010;45.080;7.634;2023-04-03T11:33:03;21.30;1.00
9943;DHT22;5010;45.080;7.634;2023-04-03T11:35:32;21.30;1.00
9943;DHT22;5010;45.080;7.634;2023-04-03T11:38:01;21.30;1.00
9943;DHT22;5010;45.080;7.634;2023-04-03T11:40:33;21.30;1.00
9943;DHT22;5010;45.080;7.634;2023-04-03T11:43:06;21.30;1.00
9943;DHT22;5010;45.080;7.634;2023-04-03T11:45:36;21.30;1.00
9943;DHT22;5010;45.080;7.634;2023-04-03T11:48:09;21.30;1.00
9943;DHT22;5010;45.080;7.634;2023-04-03T11:50:55;21.40;1.00
9943;DHT22;5010;45.080;7.634;2023-04-03T11:53:32;21.40;1.00
9943;DHT22;5010;45.080;7.634;2023-04-03T11:59:23;21.40;1.00
9943;DHT22;5010;45.080;7.634;2023-04-03T12:01:51;21.40;1.00
9943;DHT22;5010;45.080;7.634;2023-04-03T12:04:19;21.40;1.00
9943;DHT22;5010;45.080;7.634;2023-04-03T12:06:59;21.40;1.00
9943;DHT22;5010;45.080;7.634;2023-04-03T12:09:33;21.40;1.00
9943;DHT22;5010;45.080;7.634;2023-04-03T12:14:44;21.50;1.00
9943;DHT22;5010;45.080;7.634;2023-04-03T12:17:20;21.40;1.00
9943;DHT22;5010;45.080;7.634;2023-04-03T12:19:49;21.50;1.00
9943;DHT22;5010;45.080;7.634;2023-04-03T12:22:19;21.50;1.00
9943;DHT22;5010;45.080;7.634;2023-04-03T12:24:48;21.50;1.00
9943;DHT22;5010;45.080;7.634;2023-04-03T12:27:27;21.50;1.00
9943;DHT22;5010;45.080;7.634;2023-04-03T12:30:00;21.50;1.00
9943;DHT22;5010;45.080;7.634;2023-04-03T12:35:37;21.50;1.00
9943;DHT22;5010;45.080;7.634;2023-04-03T12:38:30;21.50;1.00
9943;DHT22;5010;45.080;7.634;2023-04-03T12:41:13;21.50;1.00
9943;DHT22;5010;45.080;7.634;2023-04-03T12:43:54;21.50;1.00
9943;DHT22;5010;45.080;7.634;2023-04-03T12:46:32;21.60;1.00
9943;DHT22;5010;45.080;7.634;2023-04-03T12:49:14;21.50;1.00
9943;DHT22;5010;45.080;7.634;2023-04-03T12:51:45;21.60;1.00
9943;DHT22;5010;45.080;7.634;2023-04-03T12:54:17;21.60;1.00
9943;DHT22;5010;45.080;7.634;2023-04-03T12:56:45;21.60;1.00
9943;DHT22;5010;45.080;7.634;2023-04-03T12:59:15;21.60;1.00
9943;DHT22;5010;45.080;7.634;2023-04-03T13:01:42;21.60;1.00
9943;DHT22;5010;45.080;7.634;2023-04-03T13:04:10;21.70;1.00
9943;DHT22;5010;45.080;7.634;2023-04-03T13:06:39;21.60;1.00
9943;DHT22;5010;45.080;7.634;2023-04-03T13:09:20;21.70;1.00
9943;DHT22;5010;45.080;7.634;2023-04-03T13:11:49;21.70;1.00
9943;DHT22;5010;45.080;7.634;2023-04-03T13:14:19;21.70;1.00
9943;DHT22;5010;45.080;7.634;2023-04-03T13:16:53;21.70;1.00
9943;DHT22;5010;45.080;7.634;2023-04-03T13:19:23;21.70;1.00
9943;DHT22;5010;45.080;7.634;2023-04-03T13:21:52;21.70;1.00
9943;DHT22;5010;45.080;7.634;2023-04-03T13:24:23;21.80;1.00
9943;DHT22;5010;45.080;7.634;2023-04-03T13:26:51;21.80;1.00
9943;DHT22;5010;45.080;7.634;2023-04-03T13:29:23;21.80;1.00
9943;DHT22;5010;45.080;7.634;2023-04-03T13:31:53;21.80;1.00
9943;DHT22;5010;45.080;7.634;2023-04-03T13:34:22;21.80;1.00
9943;DHT22;5010;45.080;7.634;2023-04-03T13:36:57;21.80;1.00
9943;DHT22;5010;45.080;7.634;2023-04-03T13:39:27;21.70;1.00
9943;DHT22;5010;45.080;7.634;2023-04-03T13:41:55;21.80;1.00
9943;DHT22;5010;45.080;7.634;2023-04-03T13:44:32;21.80;1.00
9943;DHT22;5010;45.080;7.634;2023-04-03T13:47:01;21.80;1.00
9943;DHT22;5010;45.080;7.634;2023-04-03T13:49:41;21.80;1.00
9943;DHT22;5010;45.080;7.634;2023-04-03T13:52:24;21.80;1.00
9943;DHT22;5010;45.080;7.634;2023-04-03T13:54:56;21.80;1.00
9943;DHT22;5010;45.080;7.634;2023-04-03T13:57:24;21.80;1.00
9943;DHT22;5010;45.080;7.634;2023-04-03T13:59:51;21.80;1.00
9943;DHT22;5010;45.080;7.634;2023-04-03T14:02:19;21.80;1.00
9943;DHT22;5010;45.080;7.634;2023-04-03T14:04:53;21.80;1.00
9943;DHT22;5010;45.080;7.634;2023-04-03T14:07:24;21.90;1.00
9943;DHT22;5010;45.080;7.634;2023-04-03T14:09:51;21.80;1.00
9943;DHT22;5010;45.080;7.634;2023-04-03T14:12:24;21.80;1.00
9943;DHT22;5010;45.080;7.634;2023-04-03T14:14:52;21.80;1.00
9943;DHT22;5010;45.080;7.634;2023-04-03T14:17:22;21.80;1.00
9943;DHT22;5010;45.080;7.634;2023-04-03T14:19:49;21.80;1.00
9943;DHT22;5010;45.080;7.634;2023-04-03T14:22:19;21.80;1.00
9943;DHT22;5010;45.080;7.634;2023-04-03T14:24:47;21.80;1.00
9943;DHT22;5010;45.080;7.634;2023-04-03T14:27:17;21.80;1.00
9943;DHT22;5010;45.080;7.634;2023-04-03T14:29:46;21.80;1.00
9943;DHT22;5010;45.080;7.634;2023-04-03T14:32:15;21.70;1.00
9943;DHT22;5010;45.080;7.634;2023-04-03T14:34:43;21.70;1.00
9943;DHT22;5010;45.080;7.634;2023-04-03T14:37:12;21.70;1.00
9943;DHT22;5010;45.080;7.634;2023-04-03T14:39:39;21.70;1.00
9943;DHT22;5010;45.080;7.634;2023-04-03T14:42:09;21.70;1.00
9943;DHT22;5010;45.080;7.634;2023-04-03T14:44:38;21.70;1.00
9943;DHT22;5010;45.080;7.634;2023-04-03T14:47:10;21.70;1.00
9943;DHT22;5010;45.080;7.634;2023-04-03T14:49:37;21.70;1.00
9943;DHT22;5010;45.080;7.634;2023-04-03T14:52:04;21.70;1.00
9943;DHT22;5010;45.080;7.634;2023-04-03T14:54:31;21.70;1.00
9943;DHT22;5010;45.080;7.634;2023-04-03T14:56:59;21.60;1.00
9943;DHT22;5010;45.080;7.634;2023-04-03T14:59:27;21.60;1.00
9943;DHT22;5010;45.080;7.634;2023-04-03T15:01:54;21.60;1.00
9943;DHT22;5010;45.080;7.634;2023-04-03T15:04:22;21.60;1.00
9943;DHT22;5010;45.080;7.634;2023-04-03T15:06:51;21.60;1.00
9943;DHT22;5010;45.080;7.634;2023-04-03T15:09:20;21.60;1.00
9943;DHT22;5010;45.080;7.634;2023-04-03T15:11:48;21.60;1.00
9943;DHT22;5010;45.080;7.634;2023-04-03T15:14:15;21.60;1.00
9943;DHT22;5010;45.080;7.634;2023-04-03T15:16:42;21.60;1.00
9943;DHT22;5010;45.080;7.634;2023-04-03T15:19:09;21.60;1.00
9943;DHT22;5010;45.080;7.634;2023-04-03T15:21:38;21.60;1.00
9943;DHT22;5010;45.080;7.634;2023-04-03T15:24:05;21.60;1.00
9943;DHT22;5010;45.080;7.634;2023-04-03T15:26:33;21.60;1.00
9943;DHT22;5010;45.080;7.634;2023-04-03T15:29:00;21.60;1.00
9943;DHT22;5010;45.080;7.634;2023-04-03T15:31:27;21.60;1.00
9943;DHT22;5010;45.080;7.634;2023-04-03T15:33:54;21.60;1.00
9943;DHT22;5010;45.080;7.634;2023-04-03T15:36:21;21.60;1.00
9943;DHT22;5010;45.080;7.634;2023-04-03T15:38:49;21.60;1.00
9943;DHT22;5010;45.080;7.634;2023-04-03T15:41:16;21.60;1.00
9943;DHT22;5010;45.080;7.634;2023-04-03T15:43:43;21.60;1.00
9943;DHT22;5010;45.080;7.634;2023-04-03T15:46:10;21.50;1.00
9943;DHT22;5010;45.080;7.634;2023-04-03T15:48:37;21.50;1.00
9943;DHT22;5010;45.080;7.634;2023-04-03T15:51:05;21.50;1.00
9943;DHT22;5010;45.080;7.634;2023-04-03T15:53:32;21.50;1.00
9943;DHT22;5010;45.080;7.634;2023-04-03T15:56:00;21.50;1.00
9943;DHT22;5010;45.080;7.634;2023-04-03T15:58:27;21.50;1.00
9943;DHT22;5010;45.080;7.634;2023-04-03T16:00:54;21.50;1.00
9943;DHT22;5010;45.080;7.634;2023-04-03T16:03:21;21.50;1.00
9943;DHT22;5010;45.080;7.634;2023-04-03T16:05:50;21.50;1.00
9943;DHT22;5010;45.080;7.634;2023-04-03T16:08:17;21.50;1.00
9943;DHT22;5010;45.080;7.634;2023-04-03T16:10:45;21.50;1.00
9943;DHT22;5010;45.080;7.634;2023-04-03T16:13:13;21.50;1.00
9943;DHT22;5010;45.080;7.634;2023-04-03T16:15:41;21.50;1.00
9943;DHT22;5010;45.080;7.634;2023-04-03T16:18:08;21.50;1.00
9943;DHT22;5010;45.080;7.634;2023-04-03T16:20:36;21.50;1.00
9943;DHT22;5010;45.080;7.634;2023-04-03T16:23:03;21.50;1.00
9943;DHT22;5010;45.080;7.634;2023-04-03T16:25:30;21.50;1.00
9943;DHT22;5010;45.080;7.634;2023-04-03T16:27:57;21.50;1.00
9943;DHT22;5010;45.080;7.634;2023-04-03T16:30:26;21.50;1.00
9943;DHT22;5010;45.080;7.634;2023-04-03T16:32:52;21.50;1.00
9943;DHT22;5010;45.080;7.634;2023-04-03T16:35:21;21.50;1.00
9943;DHT22;5010;45.080;7.634;2023-04-03T16:37:48;21.40;1.00
9943;DHT22;5010;45.080;7.634;2023-04-03T16:40:15;21.50;1.00
9943;DHT22;5010;45.080;7.634;2023-04-03T16:42:41;21.40;1.00